Fair Acres, Pennsylvania
Current Conditions -  °F | °C
As of 10:56 AM on Saturday 20 Dec 2014 (Local Time) from KCXY Reporting Station
Broken Clouds Broken Clouds  
Wind Chill: 27°   Ceiling: 2900
Heat Index: 33°   Visibility: 10mi
Dew Point: 20°   Wind: 7mph
Humidity: 59%   Direction: 40°NE
Pressure: 30.3"   Gusts: NA
Location:  40.2034°N, 76.87°W
Report Text: KCXY 201556Z 04006KT 10SM BKN029 01/M07 A3030 RMK AO2 SLP267 T00061067
Loading
Personal Weather Stations






























Interactive Weather Map New forecast layout! Learn more

10-Day Weather Forecast

Advertisements
Track Severe Weather on mobile